createdAt,value
2018-06-20T00:00:40.145Z,6.87
2018-06-20T00:03:08.767Z,7.13
2018-06-20T00:05:37.656Z,8.17
2018-06-20T00:08:06.356Z,7.93
2018-06-20T00:10:35.074Z,6.53
2018-06-20T00:13:03.965Z,7.03
2018-06-20T00:15:39.315Z,7.97
2018-06-20T00:18:08.022Z,7.53
2018-06-20T00:20:36.904Z,7.10
2018-06-20T00:23:05.720Z,8.67
2018-06-20T00:25:34.512Z,7.10
2018-06-20T00:28:03.318Z,7.23
2018-06-20T00:30:32.023Z,7.33
2018-06-20T00:33:00.814Z,7.37
2018-06-20T00:35:29.630Z,8.57
2018-06-20T00:37:58.533Z,7.00
2018-06-20T00:40:27.262Z,7.20
2018-06-20T00:42:56.199Z,6.73
2018-06-20T00:45:24.870Z,7.07
2018-06-20T00:47:53.581Z,7.83
2018-06-20T00:50:22.300Z,7.90
2018-06-20T00:52:51.087Z,7.67
2018-06-20T00:56:28.426Z,7.13
2018-06-20T00:58:57.185Z,7.70
2018-06-20T01:01:26.280Z,7.17
2018-06-20T01:03:55.386Z,6.83
2018-06-20T01:12:14.574Z,8.73
2018-06-20T01:14:43.008Z,6.90
2018-06-20T01:17:11.466Z,6.77
2018-06-20T01:19:39.870Z,10.43
2018-06-20T01:22:08.213Z,7.57
2018-06-20T01:24:36.574Z,6.67
2018-06-20T01:27:04.970Z,7.60
2018-06-20T01:29:33.355Z,8.50
2018-06-20T01:32:01.665Z,7.23
2018-06-20T01:34:30.089Z,10.77
2018-06-20T01:36:58.428Z,10.33
2018-06-20T01:39:26.778Z,8.20
2018-06-20T01:41:55.229Z,7.40
2018-06-20T01:44:23.679Z,7.97
2018-06-20T01:46:52.101Z,9.37
2018-06-20T01:49:20.488Z,8.30
2018-06-20T01:51:48.966Z,9.90
2018-06-20T01:54:17.514Z,9.17
2018-06-20T01:56:45.831Z,9.97
2018-06-20T01:59:14.210Z,10.07
2018-06-20T02:01:42.693Z,10.00
2018-06-20T02:04:11.060Z,11.37
2018-06-20T02:06:39.390Z,11.00
2018-06-20T02:09:08.401Z,10.17
2018-06-20T02:11:36.827Z,10.53
2018-06-20T02:14:05.225Z,9.97
2018-06-20T02:16:33.605Z,10.00
2018-06-20T02:19:02.034Z,9.70
2018-06-20T02:21:30.605Z,10.63
2018-06-20T02:23:59.000Z,9.57
2018-06-20T02:26:27.377Z,12.90
2018-06-20T02:28:55.737Z,10.67
2018-06-20T02:31:24.084Z,10.50
2018-06-20T02:33:52.537Z,9.37
2018-06-20T02:36:26.011Z,8.17
2018-06-20T02:38:54.365Z,7.83
2018-06-20T02:41:22.754Z,8.23
2018-06-20T02:43:51.163Z,8.57
2018-06-20T02:46:19.457Z,7.30
2018-06-20T02:48:47.912Z,7.37
2018-06-20T02:51:16.262Z,7.60
2018-06-20T02:53:44.562Z,7.50
2018-06-20T02:56:12.987Z,8.07
2018-06-20T02:58:41.347Z,7.63
2018-06-20T03:01:09.732Z,6.63
2018-06-20T03:03:38.480Z,8.27
2018-06-20T03:06:07.355Z,7.90
2018-06-20T03:08:35.884Z,8.50
2018-06-20T03:11:04.372Z,8.10
2018-06-20T03:13:32.847Z,6.83
2018-06-20T03:16:01.199Z,7.23
2018-06-20T03:18:29.629Z,7.93
2018-06-20T03:20:58.036Z,7.90
2018-06-20T03:23:26.478Z,8.20
2018-06-20T03:25:54.907Z,8.60
2018-06-20T03:28:23.308Z,10.33
2018-06-20T03:30:51.678Z,9.10
2018-06-20T03:33:20.074Z,10.10
2018-06-20T03:35:48.409Z,10.17
2018-06-20T03:38:16.750Z,10.23
2018-06-20T03:40:45.150Z,9.73
2018-06-20T03:43:13.456Z,9.77
2018-06-20T03:45:41.783Z,10.40
2018-06-20T03:48:10.259Z,16.23
2018-06-20T03:50:38.671Z,10.43
2018-06-20T03:53:07.109Z,10.83
2018-06-20T03:55:35.502Z,12.47
2018-06-20T03:58:03.975Z,10.77
2018-06-20T04:00:32.495Z,10.03
2018-06-20T04:03:00.863Z,10.63
2018-06-20T04:05:30.672Z,10.90
2018-06-20T04:07:59.612Z,10.10
2018-06-20T04:10:28.063Z,12.67
2018-06-20T04:12:56.402Z,10.90
2018-06-20T04:15:24.929Z,10.60
2018-06-20T04:17:53.326Z,10.47
2018-06-20T04:20:21.634Z,9.03
2018-06-20T04:22:49.977Z,10.00
2018-06-20T04:25:18.381Z,9.90
2018-06-20T04:27:46.782Z,10.27
2018-06-20T04:30:15.097Z,12.40
2018-06-20T04:32:43.464Z,13.87
2018-06-20T04:35:11.844Z,18.20
2018-06-20T04:37:40.196Z,14.10
2018-06-20T04:40:08.773Z,12.13
2018-06-20T04:42:37.397Z,15.53
2018-06-20T04:45:06.160Z,9.90
2018-06-20T04:47:34.513Z,19.27
2018-06-20T04:50:03.069Z,11.77
2018-06-20T04:52:31.447Z,13.03
2018-06-20T04:54:59.834Z,9.77
2018-06-20T04:57:28.214Z,11.00
2018-06-20T04:59:56.635Z,10.33
2018-06-20T05:02:24.986Z,9.27
2018-06-20T05:04:53.356Z,9.30
2018-06-20T05:07:21.657Z,9.00
2018-06-20T05:09:50.008Z,8.60
2018-06-20T05:12:18.384Z,11.77
2018-06-20T05:14:46.699Z,12.27
2018-06-20T05:17:15.009Z,8.87
2018-06-20T05:19:43.348Z,9.13
2018-06-20T05:22:11.883Z,16.77
2018-06-20T05:24:40.218Z,8.67
2018-06-20T05:27:08.621Z,11.47
2018-06-20T05:29:36.950Z,16.50
2018-06-20T05:32:05.261Z,8.83
2018-06-20T05:34:33.642Z,8.60
2018-06-20T05:37:02.082Z,12.90
2018-06-20T05:39:30.417Z,13.63
2018-06-20T05:41:58.765Z,12.40
2018-06-20T05:44:27.158Z,10.13
2018-06-20T05:46:55.523Z,8.07
2018-06-20T05:49:23.822Z,8.43
2018-06-20T05:51:52.146Z,10.40
2018-06-20T05:54:20.535Z,8.53
2018-06-20T05:56:48.902Z,9.00
2018-06-20T05:59:17.218Z,8.40
2018-06-20T06:01:45.493Z,8.93
2018-06-20T06:04:13.841Z,7.60
2018-06-20T06:06:42.133Z,10.87
2018-06-20T06:09:10.401Z,10.27
2018-06-20T06:11:38.777Z,9.90
2018-06-20T06:14:07.104Z,9.70
2018-06-20T06:16:35.438Z,8.93
2018-06-20T06:19:03.811Z,8.90
2018-06-20T06:21:32.135Z,8.27
2018-06-20T06:24:00.509Z,10.67
2018-06-20T06:26:28.867Z,6.83
2018-06-20T06:28:57.210Z,7.47
2018-06-20T06:31:25.600Z,7.50
2018-06-20T06:33:53.992Z,6.43
2018-06-20T06:36:22.406Z,8.17
2018-06-20T06:38:50.713Z,9.33
2018-06-20T06:41:19.054Z,5.37
2018-06-20T06:43:47.425Z,6.93
2018-06-20T06:46:15.746Z,9.60
2018-06-20T06:48:44.117Z,7.07
2018-06-20T06:51:12.417Z,7.50
2018-06-20T06:53:40.736Z,6.00
2018-06-20T06:56:09.070Z,5.60
2018-06-20T06:58:37.450Z,6.37
2018-06-20T07:01:05.874Z,6.53
2018-06-20T07:03:34.194Z,7.57
2018-06-20T07:06:02.567Z,8.97
2018-06-20T07:08:30.927Z,7.60
2018-06-20T07:10:59.274Z,7.20
2018-06-20T07:13:27.778Z,5.77
2018-06-20T07:15:56.106Z,6.10
2018-06-20T07:18:24.462Z,6.80
2018-06-20T07:20:52.886Z,6.17
2018-06-20T07:23:21.180Z,6.30
2018-06-20T07:25:49.621Z,6.50
2018-06-20T07:28:17.946Z,5.20
2018-06-20T07:30:46.242Z,12.10
2018-06-20T07:33:14.612Z,8.53
2018-06-20T07:35:43.024Z,9.20
2018-06-20T07:38:11.182Z,7.27
2018-06-20T07:40:39.602Z,6.47
2018-06-20T07:43:07.881Z,5.87
2018-06-20T07:45:36.321Z,8.63
2018-06-20T07:48:04.666Z,5.25
2018-06-20T07:50:33.052Z,7.12
2018-06-20T07:53:01.374Z,4.87
2018-06-20T07:55:36.115Z,5.40
2018-06-20T07:58:04.462Z,6.90
2018-06-20T08:00:38.250Z,7.55
2018-06-20T08:03:19.246Z,5.53
2018-06-20T08:05:52.936Z,5.33
2018-06-20T08:08:26.517Z,5.05
2018-06-20T08:11:00.107Z,4.75
2018-06-20T08:13:33.762Z,7.62
2018-06-20T08:16:07.524Z,5.00
2018-06-20T08:18:41.169Z,4.65
2018-06-20T08:21:09.540Z,7.67
2018-06-20T08:23:37.902Z,9.93
2018-06-20T08:26:06.252Z,4.80
2018-06-20T08:28:34.614Z,4.83
2018-06-20T08:31:02.978Z,5.45
2018-06-20T08:33:31.268Z,7.35
2018-06-20T08:35:59.580Z,9.13
2018-06-20T08:38:27.897Z,6.08
2018-06-20T08:40:56.225Z,3.98
2018-06-20T08:43:24.553Z,3.80
2018-06-20T08:45:55.812Z,7.35
2018-06-20T08:48:24.162Z,5.28
2018-06-20T08:50:52.468Z,5.30
2018-06-20T08:53:20.857Z,4.92
2018-06-20T08:55:49.329Z,5.95
2018-06-20T08:58:17.761Z,5.72
2018-06-20T09:00:51.423Z,5.37
2018-06-20T09:03:19.772Z,5.25
2018-06-20T09:05:53.451Z,8.08
2018-06-20T09:08:26.964Z,4.78
2018-06-20T09:11:00.672Z,4.25
2018-06-20T09:13:34.277Z,4.40
2018-06-20T09:16:07.819Z,4.75
2018-06-20T09:18:41.544Z,4.37
2018-06-20T09:21:09.929Z,4.40
2018-06-20T09:23:38.354Z,4.03
2018-06-20T09:26:06.688Z,5.22
2018-06-20T09:28:34.956Z,5.33
2018-06-20T09:31:03.357Z,4.40
2018-06-20T09:33:31.732Z,5.28
2018-06-20T09:36:00.081Z,4.25
2018-06-20T09:38:28.399Z,3.80
2018-06-20T09:40:56.710Z,3.33
2018-06-20T09:43:25.058Z,3.30
2018-06-20T09:45:53.412Z,3.25
2018-06-20T09:48:21.844Z,3.30
2018-06-20T09:50:57.466Z,4.78
2018-06-20T09:53:25.840Z,3.80
2018-06-20T09:55:54.341Z,4.92
2018-06-20T09:58:22.753Z,7.12
2018-06-20T10:00:56.549Z,5.90
2018-06-20T10:03:30.098Z,3.40
2018-06-20T10:06:03.597Z,3.80
2018-06-20T10:08:37.354Z,3.30
2018-06-20T10:11:11.162Z,4.25
2018-06-20T10:13:46.485Z,5.72
2018-06-20T10:16:16.742Z,3.95
2018-06-20T10:18:45.196Z,3.12
2018-06-20T10:21:13.576Z,2.75
2018-06-20T10:23:42.022Z,5.15
2018-06-20T10:26:10.423Z,4.37
2018-06-20T10:28:38.819Z,3.15
2018-06-20T10:31:07.101Z,5.22
2018-06-20T10:33:35.520Z,3.45
2018-06-20T10:36:03.912Z,2.87
2018-06-20T10:38:32.307Z,3.83
2018-06-20T10:41:00.659Z,5.42
2018-06-20T10:43:28.979Z,3.08
2018-06-20T10:46:02.650Z,2.70
2018-06-20T10:48:30.909Z,3.05
2018-06-20T10:50:59.252Z,4.15
2018-06-20T10:53:27.659Z,2.77
2018-06-20T10:55:56.038Z,3.12
2018-06-20T10:58:29.705Z,2.80
2018-06-20T11:01:03.372Z,3.17
2018-06-20T11:03:37.099Z,3.27
2018-06-20T11:06:30.938Z,5.03
2018-06-20T11:09:06.117Z,3.17
2018-06-20T11:11:39.782Z,4.95
2018-06-20T11:14:08.550Z,4.15
2018-06-20T11:16:36.953Z,2.50
2018-06-20T11:19:05.305Z,4.08
2018-06-20T11:21:33.716Z,2.67
2018-06-20T11:24:02.094Z,3.72
2018-06-20T11:26:30.429Z,2.45
2018-06-20T11:28:58.917Z,3.65
2018-06-20T11:31:27.284Z,5.22
2018-06-20T11:33:55.697Z,3.20
2018-06-20T11:36:24.045Z,5.00
2018-06-20T11:38:52.349Z,5.10
2018-06-20T11:41:20.692Z,2.72
2018-06-20T11:43:49.111Z,3.60
2018-06-20T11:46:22.707Z,3.45
2018-06-20T11:48:51.043Z,5.12
2018-06-20T11:51:19.364Z,3.02
2018-06-20T11:53:47.751Z,2.47
2018-06-20T11:56:16.048Z,2.37
2018-06-20T11:58:49.737Z,3.37
2018-06-20T12:01:23.396Z,3.12
2018-06-20T12:03:57.160Z,5.67
2018-06-20T12:06:30.829Z,3.10
2018-06-20T12:09:04.568Z,4.90
2018-06-20T12:11:37.997Z,2.87
2018-06-20T12:14:11.737Z,3.02
2018-06-20T12:16:40.076Z,5.72
2018-06-20T12:19:13.677Z,2.15
2018-06-20T12:21:47.478Z,2.27
2018-06-20T12:24:21.212Z,3.92
2018-06-20T12:26:54.933Z,2.40
2018-06-20T12:29:28.573Z,2.02
2018-06-20T12:32:02.188Z,2.42
2018-06-20T12:34:35.851Z,3.67
2018-06-20T12:37:09.618Z,1.70
2018-06-20T12:39:37.133Z,4.08
2018-06-20T12:42:11.026Z,2.15
2018-06-20T12:44:44.696Z,2.47
2018-06-20T12:47:17.800Z,3.20
2018-06-20T12:49:56.621Z,3.80
2018-06-20T12:52:25.011Z,2.30
2018-06-20T12:54:53.387Z,2.58
2018-06-20T12:57:21.721Z,3.05
2018-06-20T12:59:50.072Z,2.27
2018-06-20T13:02:18.435Z,4.78
2018-06-20T13:04:46.755Z,3.77
2018-06-20T13:07:15.034Z,2.20
2018-06-20T13:09:43.380Z,3.55
2018-06-20T13:12:11.847Z,3.08
2018-06-20T13:14:40.268Z,3.87
2018-06-20T13:17:08.749Z,1.62
2018-06-20T13:19:37.189Z,4.30
2018-06-20T13:22:05.520Z,1.80
2018-06-20T13:24:33.951Z,2.45
2018-06-20T13:27:02.296Z,2.75
2018-06-20T13:29:30.628Z,3.20
2018-06-20T13:34:12.710Z,2.92
2018-06-20T13:36:46.524Z,2.95
2018-06-20T13:40:21.887Z,1.62
2018-06-20T13:42:55.596Z,2.30
2018-06-20T13:45:29.329Z,3.45
2018-06-20T13:48:03.066Z,2.95
2018-06-20T13:50:31.525Z,2.17
2018-06-20T13:52:59.886Z,2.50
2018-06-20T13:55:28.280Z,2.33
2018-06-20T13:57:56.708Z,2.45
2018-06-20T14:00:25.157Z,2.85
2018-06-20T14:02:53.505Z,4.00
2018-06-20T14:05:21.882Z,1.70
2018-06-20T14:07:50.407Z,2.65
2018-06-20T14:10:18.787Z,2.67
2018-06-20T14:12:47.193Z,2.98
2018-06-20T14:15:15.607Z,2.35
2018-06-20T14:17:43.908Z,3.60
2018-06-20T14:20:17.504Z,1.87
2018-06-20T14:22:45.861Z,3.08
2018-06-20T14:25:14.163Z,2.37
2018-06-20T14:27:42.528Z,2.02
2018-06-20T14:30:10.925Z,2.95
2018-06-20T14:32:44.595Z,1.98
2018-06-20T14:35:18.407Z,3.55
2018-06-20T14:37:52.214Z,1.87
2018-06-20T14:40:25.802Z,1.75
2018-06-20T14:42:59.425Z,1.57
2018-06-20T14:45:33.028Z,1.87
2018-06-20T14:48:01.488Z,1.65
2018-06-20T14:50:29.952Z,1.50
2018-06-20T14:52:58.376Z,1.67
2018-06-20T14:55:26.884Z,5.08
2018-06-20T14:57:55.363Z,1.65
2018-06-20T15:00:23.860Z,3.22
2018-06-20T15:03:53.720Z,2.08
2018-06-20T15:06:22.043Z,2.00
2018-06-20T15:08:50.619Z,3.58
2018-06-20T15:11:19.179Z,3.30
2018-06-20T15:13:47.533Z,1.90
2018-06-20T15:16:21.247Z,3.55
2018-06-20T15:18:49.828Z,3.42
2018-06-20T15:21:19.033Z,3.33
2018-06-20T15:23:47.452Z,2.05
2018-06-20T15:26:21.162Z,2.70
2018-06-20T15:28:54.657Z,1.82
2018-06-20T15:31:29.285Z,3.55
2018-06-20T15:34:03.239Z,2.17
2018-06-20T15:36:37.208Z,3.33
2018-06-20T15:39:07.699Z,2.58
2018-06-20T15:41:36.069Z,3.10
2018-06-20T15:44:05.081Z,1.80
2018-06-20T15:46:33.597Z,1.72
2018-06-20T15:49:01.947Z,2.00
2018-06-20T15:51:30.397Z,1.87
2018-06-20T15:53:58.788Z,2.62
2018-06-20T15:56:27.520Z,3.67
2018-06-20T15:58:56.037Z,3.15
2018-06-20T16:01:24.424Z,2.98
2018-06-20T16:03:52.768Z,4.25
2018-06-20T16:06:21.233Z,3.52
2018-06-20T16:08:55.031Z,4.17
2018-06-20T16:11:23.389Z,2.08
2018-06-20T16:13:51.872Z,2.02
2018-06-20T16:16:20.394Z,3.52
2018-06-20T16:18:54.069Z,2.20
2018-06-20T16:21:27.797Z,1.75
2018-06-20T16:24:01.554Z,3.15
2018-06-20T16:26:35.322Z,4.20
2018-06-20T16:29:09.052Z,3.40
2018-06-20T16:31:37.477Z,3.72
2018-06-20T16:34:05.841Z,6.03
2018-06-20T16:36:34.311Z,3.98
2018-06-20T16:39:02.682Z,2.17
2018-06-20T16:41:31.030Z,3.80
2018-06-20T16:43:59.296Z,2.80
2018-06-20T16:46:27.658Z,2.70
2018-06-20T16:48:56.124Z,7.00
2018-06-20T16:51:24.439Z,2.65
2018-06-20T16:53:52.817Z,2.12
2018-06-20T16:56:21.221Z,2.50
2018-06-20T16:58:49.796Z,4.72
2018-06-20T17:01:23.253Z,1.65
2018-06-20T17:03:51.706Z,5.53
2018-06-20T17:06:20.148Z,6.67
2018-06-20T17:08:48.750Z,3.83
2018-06-20T17:11:17.160Z,2.22
2018-06-20T17:13:50.933Z,4.17
2018-06-20T17:16:24.698Z,18.65
2018-06-20T17:18:58.516Z,4.10
2018-06-20T17:22:30.062Z,5.10
2018-06-20T17:25:03.729Z,3.62
2018-06-20T17:27:32.317Z,5.78
2018-06-20T17:30:00.928Z,2.52
2018-06-20T17:32:29.394Z,2.80
2018-06-20T17:34:57.998Z,2.58
2018-06-20T17:37:26.546Z,2.55
2018-06-20T17:39:55.470Z,2.42
2018-06-20T17:42:24.008Z,4.47
2018-06-20T17:44:52.509Z,2.60
2018-06-20T17:47:20.857Z,2.83
2018-06-20T17:49:49.485Z,3.42
2018-06-20T17:52:18.012Z,3.33
2018-06-20T17:54:46.665Z,3.62
2018-06-20T17:57:15.073Z,3.10
2018-06-20T17:59:43.429Z,3.15
2018-06-20T18:02:11.870Z,2.80
2018-06-20T18:04:45.509Z,4.03
2018-06-20T18:07:19.319Z,4.20
2018-06-20T18:09:53.106Z,5.25
2018-06-20T18:12:26.831Z,14.47
2018-06-20T18:15:00.549Z,3.98
2018-06-20T18:17:29.011Z,5.70
2018-06-20T18:19:57.505Z,2.58
2018-06-20T18:22:25.789Z,5.80
2018-06-20T18:24:54.247Z,6.62
2018-06-20T18:27:22.513Z,5.95
2018-06-20T18:29:50.887Z,5.80
2018-06-20T18:32:19.188Z,6.53
2018-06-20T18:34:48.195Z,3.05
2018-06-20T18:37:16.553Z,2.90
2018-06-20T18:39:50.280Z,4.12
2018-06-20T18:42:18.654Z,4.62
2018-06-20T18:44:47.028Z,4.85
2018-06-20T18:47:20.845Z,3.77
2018-06-20T18:49:49.299Z,2.72
2018-06-20T18:52:18.116Z,4.50
2018-06-20T18:54:46.670Z,3.02
2018-06-20T18:57:21.458Z,2.60
2018-06-20T18:59:55.236Z,3.27
2018-06-20T19:02:29.524Z,6.37
2018-06-20T19:05:03.345Z,3.45
2018-06-20T19:07:37.206Z,4.70
2018-06-20T19:10:05.709Z,4.45
2018-06-20T19:12:34.167Z,3.55
2018-06-20T19:15:02.663Z,4.65
2018-06-20T19:17:31.417Z,4.25
2018-06-20T19:20:00.673Z,4.47
2018-06-20T19:22:29.000Z,3.00
2018-06-20T19:24:57.356Z,5.47
2018-06-20T19:27:25.735Z,3.05
2018-06-20T19:29:55.034Z,4.35
2018-06-20T19:32:23.550Z,6.53
2018-06-20T19:34:51.859Z,4.62
2018-06-20T19:37:20.195Z,4.92
2018-06-20T19:39:52.562Z,11.50
2018-06-20T19:42:22.866Z,5.15
2018-06-20T19:44:51.374Z,12.50
2018-06-20T19:47:19.709Z,31.00
2018-06-20T19:49:48.094Z,6.17
2018-06-20T19:52:16.414Z,6.62
2018-06-20T19:54:44.836Z,5.17
2018-06-20T19:57:13.327Z,3.35
2018-06-20T19:59:41.789Z,5.80
2018-06-20T20:02:10.602Z,5.25
2018-06-20T20:04:38.917Z,3.80
2018-06-20T20:07:07.315Z,4.90
2018-06-20T20:09:36.038Z,3.00
2018-06-20T20:12:04.532Z,4.35
2018-06-20T20:14:33.123Z,5.25
2018-06-20T20:17:01.580Z,5.42
2018-06-20T20:19:30.117Z,6.50
2018-06-20T20:21:58.436Z,3.33
2018-06-20T20:24:27.289Z,3.58
2018-06-20T20:26:55.678Z,2.90
2018-06-20T20:29:24.112Z,4.57
2018-06-20T20:31:52.420Z,4.40
2018-06-20T20:34:20.882Z,2.87
2018-06-20T20:36:49.254Z,6.83
2018-06-20T20:39:17.992Z,2.87
2018-06-20T20:41:46.672Z,3.90
2018-06-20T20:44:15.057Z,4.33
2018-06-20T20:46:43.405Z,5.40
2018-06-20T20:49:11.828Z,6.73
2018-06-20T20:51:40.583Z,4.97
2018-06-20T20:54:09.041Z,4.60
2018-06-20T20:56:37.665Z,3.20
2018-06-20T20:59:06.077Z,8.40
2018-06-20T21:01:34.692Z,4.50
2018-06-20T21:04:02.977Z,4.50
2018-06-20T21:06:31.364Z,3.93
2018-06-20T21:08:59.968Z,3.57
2018-06-20T21:11:32.500Z,2.77
2018-06-20T21:14:01.776Z,4.73
2018-06-20T21:16:30.324Z,3.50
2018-06-20T21:18:59.180Z,4.93
2018-06-20T21:21:27.941Z,4.27
2018-06-20T21:23:56.311Z,5.47
2018-06-20T21:26:24.701Z,9.10
2018-06-20T21:28:53.058Z,7.00
2018-06-20T21:31:21.715Z,5.97
2018-06-20T21:33:50.061Z,5.17
2018-06-20T21:36:21.629Z,8.77
2018-06-20T21:38:51.303Z,12.57
2018-06-20T21:41:20.978Z,7.33
2018-06-20T21:43:49.471Z,11.33
2018-06-20T21:46:17.807Z,6.70
2018-06-20T21:48:46.793Z,8.03
2018-06-20T21:51:17.527Z,6.23
2018-06-20T21:53:47.375Z,5.87
2018-06-20T21:56:15.849Z,9.30
2018-06-20T21:58:44.314Z,13.13
2018-06-20T22:01:16.739Z,6.00
2018-06-20T22:03:45.249Z,5.90
2018-06-20T22:06:13.585Z,7.20
2018-06-20T22:08:42.062Z,12.50
2018-06-20T22:11:10.373Z,11.73
2018-06-20T22:13:38.862Z,8.43
2018-06-20T22:16:07.382Z,7.20
2018-06-20T22:18:35.737Z,6.23
2018-06-20T22:21:04.104Z,7.70
2018-06-20T22:23:32.574Z,7.70
2018-06-20T22:26:00.957Z,12.77
2018-06-20T22:28:29.270Z,11.63
2018-06-20T22:30:57.567Z,13.20
2018-06-20T22:33:26.515Z,8.07
2018-06-20T22:35:54.938Z,12.47
2018-06-20T22:38:23.334Z,9.97
2018-06-20T22:40:51.922Z,7.80
2018-06-20T22:43:20.320Z,11.63
2018-06-20T22:45:49.325Z,15.97
2018-06-20T22:48:17.793Z,9.50
2018-06-20T22:50:46.231Z,15.60
2018-06-20T22:53:14.654Z,10.73
2018-06-20T22:55:43.340Z,9.73
2018-06-20T22:58:11.832Z,7.17
2018-06-20T23:00:40.316Z,6.07
2018-06-20T23:03:08.732Z,5.53
2018-06-20T23:05:37.108Z,6.57
2018-06-20T23:14:06.778Z,6.77
2018-06-20T23:16:35.236Z,7.57
2018-06-20T23:19:03.962Z,6.33
2018-06-20T23:21:32.351Z,7.63
2018-06-20T23:24:00.980Z,8.47
2018-06-20T23:26:29.494Z,8.03
2018-06-20T23:28:58.487Z,6.53
2018-06-20T23:31:26.914Z,6.97
2018-06-20T23:33:55.411Z,4.90
2018-06-20T23:36:24.219Z,6.10
2018-06-20T23:38:52.669Z,4.80
2018-06-20T23:41:21.071Z,6.63
2018-06-20T23:43:49.425Z,5.30
2018-06-20T23:46:17.986Z,6.17
2018-06-20T23:48:46.467Z,7.10
2018-06-20T23:51:15.050Z,5.93
2018-06-20T23:53:43.444Z,7.87
2018-06-20T23:56:11.855Z,6.23
2018-06-20T23:58:40.364Z,6.03
